Boortmeerbeek, Belgium
Current Conditions -  °F | °C
As of 1:50 AM on Monday 24 Nov 2014 (Local Time) from EBBR Reporting Station
Drizzle Drizzle  
Wind Chill: 45°   Ceiling: 1000
Heat Index: 48°   Visibility: 4mi
Dew Point: 46°   Wind: 7mph
Humidity: 93%   Direction: 330°NNW
Pressure: 30.09"   Gusts: NA
Location:  50.98°N, 4.57°E
Report Text: EBBR 240050Z 33006KT 6000 -DZ SCT007 BKN010 09/08 Q1019 TEMPO 2000 DZRA BKN004
Loading
Personal Weather Stations






























Interactive Weather Map New forecast layout! Learn more

10-Day Weather Forecast

Advertisements
Track Severe Weather on mobile